XSN16L LICJ-LFML
Flight info
| Callsign | XSN16L |
|---|---|
| Flight time | 1h 46m |
| Altitude | 30000 |
| Route | KAPIL DCT ADAMI DCT ALG DCT GINOX DCT OKSER T175 TINOT |
| Aircraft | B462/M-SDFGIRWY/LB1 |
Departure
| Time | 2026-04-29 16:39 |
|---|---|
| Airport | Falcone–Borsellino Airport (LICJ) |
Arrival
| Time | 2026-04-29 18:25 |
|---|---|
| Airport | Marseille Provence Airport (LFML) |
| Time | Latitude | Longitude | Altitude | Speed | Heading |
|---|---|---|---|---|---|
| 2026-04-29 16:17 | 38.18570 | 13.10665 | 48 ft | 0 kts | 337° |
| 2026-04-29 16:26 | 38.18565 | 13.10667 | 53 ft | 3 kts | 336° |
| 2026-04-29 16:27 | 38.18541 | 13.10682 | 51 ft | 4 kts | 331° |
| 2026-04-29 16:27 | 38.18519 | 13.10701 | 48 ft | 4 kts | 315° |
| 2026-04-29 16:27 | 38.18509 | 13.10728 | 48 ft | 3 kts | 253° |
| 2026-04-29 16:27 | 38.18512 | 13.10737 | 49 ft | 0 kts | 247° |
| 2026-04-29 16:32 | 38.18508 | 13.10725 | 47 ft | 4 kts | 247° |
| 2026-04-29 16:32 | 38.18492 | 13.10678 | 50 ft | 8 kts | 245° |
| 2026-04-29 16:32 | 38.18462 | 13.10597 | 53 ft | 12 kts | 245° |
| 2026-04-29 16:32 | 38.18404 | 13.10510 | 53 ft | 16 kts | 199° |
| 2026-04-29 16:33 | 38.18232 | 13.10365 | 53 ft | 16 kts | 200° |
| 2026-04-29 16:33 | 38.18171 | 13.10245 | 53 ft | 17 kts | 246° |
| 2026-04-29 16:33 | 38.18127 | 13.10108 | 52 ft | 17 kts | 246° |
| 2026-04-29 16:34 | 38.18076 | 13.09970 | 53 ft | 18 kts | 247° |
| 2026-04-29 16:34 | 38.18030 | 13.09824 | 50 ft | 18 kts | 250° |
| 2026-04-29 16:34 | 38.17982 | 13.09677 | 50 ft | 18 kts | 246° |
| 2026-04-29 16:34 | 38.17929 | 13.09524 | 53 ft | 19 kts | 246° |
| 2026-04-29 16:35 | 38.17879 | 13.09371 | 52 ft | 19 kts | 246° |
| 2026-04-29 16:35 | 38.17823 | 13.09215 | 51 ft | 20 kts | 244° |
| 2026-04-29 16:35 | 38.17773 | 13.09051 | 53 ft | 20 kts | 247° |
| 2026-04-29 16:35 | 38.17695 | 13.08909 | 53 ft | 20 kts | 217° |
| 2026-04-29 16:36 | 38.17594 | 13.08813 | 51 ft | 17 kts | 218° |
| 2026-04-29 16:36 | 38.17504 | 13.08755 | 53 ft | 13 kts | 151° |
| 2026-04-29 16:36 | 38.17500 | 13.08854 | 50 ft | 11 kts | 67° |
| 2026-04-29 16:36 | 38.17503 | 13.08864 | 49 ft | 0 kts | 65° |
| 2026-04-29 16:37 | 38.17539 | 13.08968 | 53 ft | 39 kts | 67° |
| 2026-04-29 16:37 | 38.17721 | 13.09506 | 50 ft | 93 kts | 67° |
| 2026-04-29 16:37 | 38.17916 | 13.10091 | 53 ft | 123 kts | 67° |
| 2026-04-29 16:38 | 38.18447 | 13.11657 | 193 ft | 157 kts | 67° |
| 2026-04-29 16:38 | 38.18898 | 13.13010 | 389 ft | 175 kts | 68° |
| 2026-04-29 16:38 | 38.19406 | 13.14537 | 484 ft | 201 kts | 66° |
| 2026-04-29 16:38 | 38.19992 | 13.16281 | 585 ft | 227 kts | 66° |
| 2026-04-29 16:39 | 38.20647 | 13.18214 | 744 ft | 248 kts | 67° |
| 2026-04-29 16:39 | 38.21533 | 13.20034 | 1300 ft | 249 kts | 43° |
| 2026-04-29 16:39 | 38.23087 | 13.21075 | 1731 ft | 258 kts | 20° |
| 2026-04-29 16:39 | 38.24794 | 13.21831 | 2175 ft | 262 kts | 23° |
| 2026-04-29 16:40 | 38.26521 | 13.22624 | 2648 ft | 266 kts | 14° |
| 2026-04-29 16:40 | 38.28379 | 13.22549 | 3045 ft | 274 kts | 341° |
| 2026-04-29 16:40 | 38.29975 | 13.21254 | 3495 ft | 275 kts | 310° |
| 2026-04-29 16:40 | 38.30882 | 13.19156 | 4009 ft | 271 kts | 281° |
| 2026-04-29 16:41 | 38.30901 | 13.16794 | 4446 ft | 268 kts | 252° |
| 2026-04-29 16:41 | 38.30073 | 13.14709 | 4912 ft | 264 kts | 232° |
| 2026-04-29 16:41 | 38.28989 | 13.12812 | 5385 ft | 265 kts | 232° |
| 2026-04-29 16:41 | 38.28077 | 13.10779 | 5836 ft | 268 kts | 252° |
| 2026-04-29 16:42 | 38.27937 | 13.08403 | 6339 ft | 272 kts | 270° |
| 2026-04-29 16:42 | 38.28108 | 13.05995 | 6879 ft | 273 kts | 274° |
| 2026-04-29 16:42 | 38.28403 | 13.03604 | 7492 ft | 274 kts | 279° |
| 2026-04-29 16:42 | 38.28868 | 13.01250 | 8192 ft | 275 kts | 284° |
| 2026-04-29 16:43 | 38.29415 | 12.98911 | 8948 ft | 276 kts | 284° |
| 2026-04-29 16:43 | 38.29957 | 12.96568 | 9730 ft | 276 kts | 283° |
| 2026-04-29 16:43 | 38.30462 | 12.94203 | 10462 ft | 277 kts | 283° |
| 2026-04-29 16:43 | 38.30961 | 12.91820 | 11168 ft | 279 kts | 283° |
| 2026-04-29 16:44 | 38.31469 | 12.89428 | 11864 ft | 281 kts | 283° |
| 2026-04-29 16:44 | 38.31977 | 12.87019 | 12533 ft | 283 kts | 283° |
| 2026-04-29 16:44 | 38.32488 | 12.84594 | 13186 ft | 284 kts | 284° |
| 2026-04-29 16:44 | 38.32995 | 12.82156 | 13811 ft | 286 kts | 284° |
| 2026-04-29 16:45 | 38.33501 | 12.79700 | 14323 ft | 288 kts | 284° |
| 2026-04-29 16:45 | 38.34012 | 12.77222 | 14814 ft | 291 kts | 283° |
| 2026-04-29 16:45 | 38.34517 | 12.74753 | 15283 ft | 293 kts | 283° |
| 2026-04-29 16:45 | 38.35042 | 12.72198 | 15748 ft | 295 kts | 283° |
| 2026-04-29 16:46 | 38.35561 | 12.69658 | 16198 ft | 298 kts | 284° |
| 2026-04-29 16:46 | 38.36096 | 12.67135 | 16624 ft | 300 kts | 284° |
| 2026-04-29 16:46 | 38.36640 | 12.64557 | 17035 ft | 302 kts | 284° |
| 2026-04-29 16:46 | 38.37174 | 12.61961 | 17447 ft | 304 kts | 284° |
| 2026-04-29 16:47 | 38.37710 | 12.59337 | 17839 ft | 306 kts | 283° |
| 2026-04-29 16:47 | 38.38256 | 12.56707 | 18218 ft | 308 kts | 284° |
| 2026-04-29 16:47 | 38.38816 | 12.54065 | 18542 ft | 310 kts | 284° |
| 2026-04-29 16:47 | 38.39362 | 12.51402 | 18849 ft | 311 kts | 284° |
| 2026-04-29 16:48 | 38.39909 | 12.48726 | 19149 ft | 313 kts | 283° |
| 2026-04-29 16:48 | 38.40457 | 12.46031 | 19439 ft | 314 kts | 283° |
| 2026-04-29 16:48 | 38.41008 | 12.43330 | 19723 ft | 316 kts | 283° |
| 2026-04-29 16:48 | 38.41559 | 12.40614 | 20007 ft | 317 kts | 283° |
| 2026-04-29 16:49 | 38.42114 | 12.37890 | 20296 ft | 318 kts | 283° |
| 2026-04-29 16:49 | 38.42670 | 12.35156 | 20555 ft | 319 kts | 283° |
| 2026-04-29 16:49 | 38.43235 | 12.32410 | 20815 ft | 321 kts | 284° |
| 2026-04-29 16:49 | 38.43800 | 12.29655 | 21069 ft | 322 kts | 283° |
| 2026-04-29 16:50 | 38.44369 | 12.26887 | 21324 ft | 323 kts | 283° |
| 2026-04-29 16:50 | 38.44937 | 12.24110 | 21574 ft | 325 kts | 283° |
| 2026-04-29 16:50 | 38.45504 | 12.21347 | 21821 ft | 326 kts | 283° |
| 2026-04-29 16:50 | 38.46078 | 12.18545 | 22059 ft | 327 kts | 283° |
| 2026-04-29 16:51 | 38.46655 | 12.15727 | 22301 ft | 329 kts | 283° |
| 2026-04-29 16:51 | 38.47236 | 12.12902 | 22556 ft | 330 kts | 283° |
| 2026-04-29 16:51 | 38.47819 | 12.10060 | 22797 ft | 331 kts | 283° |
| 2026-04-29 16:51 | 38.48406 | 12.07209 | 23034 ft | 333 kts | 283° |
| 2026-04-29 16:52 | 38.48995 | 12.04341 | 23273 ft | 334 kts | 283° |
| 2026-04-29 16:52 | 38.49579 | 12.01483 | 23580 ft | 333 kts | 283° |
| 2026-04-29 16:52 | 38.50148 | 11.98608 | 23771 ft | 334 kts | 283° |
| 2026-04-29 16:52 | 38.50710 | 11.95766 | 23970 ft | 335 kts | 283° |
| 2026-04-29 16:53 | 38.51299 | 11.92877 | 24150 ft | 338 kts | 283° |
| 2026-04-29 16:53 | 38.51883 | 11.89965 | 24318 ft | 339 kts | 283° |
| 2026-04-29 16:53 | 38.52461 | 11.87036 | 24512 ft | 340 kts | 283° |
| 2026-04-29 16:53 | 38.53039 | 11.84103 | 24713 ft | 341 kts | 282° |
| 2026-04-29 16:54 | 38.53617 | 11.81164 | 24911 ft | 342 kts | 282° |
| 2026-04-29 16:54 | 38.54197 | 11.78217 | 25103 ft | 342 kts | 282° |
| 2026-04-29 16:54 | 38.54778 | 11.75264 | 25294 ft | 343 kts | 282° |
| 2026-04-29 16:54 | 38.55361 | 11.72301 | 25471 ft | 344 kts | 282° |
| 2026-04-29 16:55 | 38.55945 | 11.69334 | 25653 ft | 345 kts | 282° |
| 2026-04-29 16:55 | 38.56533 | 11.66354 | 25851 ft | 345 kts | 283° |
| 2026-04-29 16:55 | 38.57138 | 11.63376 | 26037 ft | 346 kts | 283° |
| 2026-04-29 16:55 | 38.57737 | 11.60389 | 26209 ft | 347 kts | 283° |
| 2026-04-29 16:56 | 38.58330 | 11.57397 | 26368 ft | 348 kts | 282° |
| 2026-04-29 16:56 | 38.58923 | 11.54393 | 26538 ft | 349 kts | 282° |
| 2026-04-29 16:56 | 38.59516 | 11.51384 | 26705 ft | 350 kts | 282° |
| 2026-04-29 16:56 | 38.60111 | 11.48367 | 26869 ft | 350 kts | 282° |
| 2026-04-29 16:57 | 38.60699 | 11.45374 | 27032 ft | 351 kts | 282° |
| 2026-04-29 16:57 | 38.61297 | 11.42344 | 27181 ft | 352 kts | 282° |
| 2026-04-29 16:57 | 38.61894 | 11.39304 | 27345 ft | 353 kts | 282° |
| 2026-04-29 16:57 | 38.62494 | 11.36260 | 27498 ft | 353 kts | 282° |
| 2026-04-29 16:58 | 38.63095 | 11.33204 | 27648 ft | 354 kts | 282° |
| 2026-04-29 16:58 | 38.63699 | 11.30148 | 27788 ft | 355 kts | 282° |
| 2026-04-29 16:58 | 38.64304 | 11.27072 | 27927 ft | 356 kts | 282° |
| 2026-04-29 16:58 | 38.64909 | 11.23991 | 28076 ft | 357 kts | 282° |
| 2026-04-29 16:59 | 38.65488 | 11.20906 | 28214 ft | 358 kts | 281° |
| 2026-04-29 16:59 | 38.66068 | 11.17798 | 28342 ft | 359 kts | 282° |
| 2026-04-29 16:59 | 38.66666 | 11.14698 | 28483 ft | 359 kts | 282° |
| 2026-04-29 16:59 | 38.67272 | 11.11589 | 28611 ft | 360 kts | 282° |
| 2026-04-29 17:00 | 38.67882 | 11.08474 | 28739 ft | 361 kts | 282° |
| 2026-04-29 17:00 | 38.68287 | 11.06413 | 28833 ft | 361 kts | 282° |
| 2026-04-29 17:00 | 38.68901 | 11.03293 | 28963 ft | 362 kts | 282° |
| 2026-04-29 17:00 | 38.69684 | 10.99123 | 29129 ft | 363 kts | 281° |
| 2026-04-29 17:01 | 38.70276 | 10.95983 | 29240 ft | 364 kts | 287° |
| 2026-04-29 17:01 | 38.70978 | 10.94026 | 29284 ft | 368 kts | 301° |
| 2026-04-29 17:01 | 38.72661 | 10.91477 | 29385 ft | 373 kts | 311° |
| 2026-04-29 17:01 | 38.74483 | 10.89162 | 29492 ft | 374 kts | 312° |
| 2026-04-29 17:02 | 38.76359 | 10.86836 | 29602 ft | 375 kts | 313° |
| 2026-04-29 17:02 | 38.78232 | 10.84510 | 29721 ft | 375 kts | 311° |
| 2026-04-29 17:02 | 38.80028 | 10.82101 | 29882 ft | 373 kts | 309° |
| 2026-04-29 17:02 | 38.81772 | 10.79627 | 29945 ft | 374 kts | 309° |
| 2026-04-29 17:03 | 38.85315 | 10.74818 | 29975 ft | 370 kts | 310° |
| 2026-04-29 17:03 | 38.88871 | 10.70037 | 29983 ft | 369 kts | 310° |
| 2026-04-29 17:04 | 38.92417 | 10.65264 | 29989 ft | 369 kts | 310° |
| 2026-04-29 17:04 | 38.95931 | 10.60454 | 29989 ft | 369 kts | 309° |
| 2026-04-29 17:05 | 38.99428 | 10.55668 | 29993 ft | 367 kts | 310° |
| 2026-04-29 17:05 | 39.02930 | 10.50920 | 29990 ft | 369 kts | 310° |
| 2026-04-29 17:06 | 39.06471 | 10.46122 | 29993 ft | 370 kts | 310° |
| 2026-04-29 17:06 | 39.09977 | 10.41248 | 29990 ft | 372 kts | 310° |
| 2026-04-29 17:07 | 39.13539 | 10.36374 | 30000 ft | 374 kts | 310° |
| 2026-04-29 17:07 | 39.17113 | 10.31478 | 29994 ft | 376 kts | 310° |
| 2026-04-29 17:08 | 39.20698 | 10.26563 | 29994 ft | 377 kts | 310° |
| 2026-04-29 17:08 | 39.24276 | 10.21663 | 29989 ft | 375 kts | 310° |
| 2026-04-29 17:09 | 39.27831 | 10.16726 | 29985 ft | 375 kts | 308° |
| 2026-04-29 17:09 | 39.31440 | 10.11793 | 29993 ft | 380 kts | 309° |
| 2026-04-29 17:10 | 39.35036 | 10.06748 | 29992 ft | 384 kts | 309° |
| 2026-04-29 17:10 | 39.38730 | 10.01698 | 29997 ft | 388 kts | 308° |
| 2026-04-29 17:11 | 39.42409 | 9.96535 | 29994 ft | 393 kts | 309° |
| 2026-04-29 17:11 | 39.46130 | 9.91376 | 29996 ft | 396 kts | 308° |
| 2026-04-29 17:12 | 39.49906 | 9.86119 | 29990 ft | 400 kts | 309° |
| 2026-04-29 17:12 | 39.53061 | 9.81700 | 30009 ft | 403 kts | 308° |
| 2026-04-29 17:13 | 39.57563 | 9.75461 | 30016 ft | 407 kts | 309° |
| 2026-04-29 17:13 | 39.61392 | 9.70019 | 30031 ft | 410 kts | 309° |
| 2026-04-29 17:14 | 39.65297 | 9.64591 | 30053 ft | 412 kts | 308° |
| 2026-04-29 17:14 | 39.69191 | 9.59068 | 30026 ft | 415 kts | 309° |
| 2026-04-29 17:15 | 39.73135 | 9.53564 | 30052 ft | 417 kts | 308° |
| 2026-04-29 17:15 | 39.77041 | 9.48020 | 30040 ft | 419 kts | 310° |
| 2026-04-29 17:16 | 39.81010 | 9.42436 | 30041 ft | 420 kts | 308° |
| 2026-04-29 17:16 | 39.84982 | 9.36816 | 29989 ft | 423 kts | 309° |
| 2026-04-29 17:17 | 39.88944 | 9.31136 | 29988 ft | 424 kts | 309° |
| 2026-04-29 17:17 | 39.92972 | 9.25503 | 29982 ft | 425 kts | 309° |
| 2026-04-29 17:18 | 39.96940 | 9.19759 | 29988 ft | 427 kts | 309° |
| 2026-04-29 17:18 | 40.00997 | 9.14071 | 29989 ft | 428 kts | 308° |
| 2026-04-29 17:19 | 40.04968 | 9.08312 | 29984 ft | 430 kts | 309° |
| 2026-04-29 17:19 | 40.09021 | 9.02550 | 29985 ft | 431 kts | 308° |
| 2026-04-29 17:20 | 40.13068 | 8.96755 | 29958 ft | 432 kts | 310° |
| 2026-04-29 17:20 | 40.17078 | 8.90903 | 29961 ft | 433 kts | 309° |
| 2026-04-29 17:21 | 40.21162 | 8.85096 | 29964 ft | 435 kts | 310° |
| 2026-04-29 17:21 | 40.25208 | 8.79201 | 29962 ft | 435 kts | 309° |
| 2026-04-29 17:22 | 40.29284 | 8.73371 | 29960 ft | 437 kts | 310° |
| 2026-04-29 17:22 | 40.33344 | 8.67429 | 29963 ft | 438 kts | 309° |
| 2026-04-29 17:23 | 40.37463 | 8.61539 | 29961 ft | 439 kts | 310° |
| 2026-04-29 17:23 | 40.41521 | 8.55546 | 29961 ft | 439 kts | 309° |
| 2026-04-29 17:24 | 40.45651 | 8.49635 | 29966 ft | 440 kts | 309° |
| 2026-04-29 17:24 | 40.49690 | 8.43652 | 29965 ft | 441 kts | 309° |
| 2026-04-29 17:25 | 40.53809 | 8.37690 | 29970 ft | 440 kts | 308° |
| 2026-04-29 17:25 | 40.57895 | 8.31666 | 29969 ft | 441 kts | 310° |
| 2026-04-29 17:26 | 40.61983 | 8.25627 | 29943 ft | 442 kts | 309° |
| 2026-04-29 17:26 | 40.66616 | 8.20303 | 29915 ft | 444 kts | 322° |
| 2026-04-29 17:27 | 40.71572 | 8.15450 | 29951 ft | 443 kts | 319° |
| 2026-04-29 17:27 | 40.76330 | 8.10334 | 29945 ft | 444 kts | 320° |
| 2026-04-29 17:28 | 40.81251 | 8.05304 | 29966 ft | 445 kts | 320° |
| 2026-04-29 17:28 | 40.86044 | 8.00201 | 29951 ft | 445 kts | 320° |
| 2026-04-29 17:29 | 40.90438 | 7.94490 | 29984 ft | 444 kts | 310° |
| 2026-04-29 17:29 | 40.93883 | 7.89348 | 29963 ft | 445 kts | 310° |
| 2026-04-29 17:30 | 40.98803 | 7.82397 | 29959 ft | 445 kts | 313° |
| 2026-04-29 17:30 | 41.03070 | 7.76443 | 29973 ft | 445 kts | 311° |
| 2026-04-29 17:31 | 41.07307 | 7.70454 | 29963 ft | 446 kts | 313° |
| 2026-04-29 17:31 | 41.11532 | 7.64435 | 29965 ft | 445 kts | 311° |
| 2026-04-29 17:32 | 41.15798 | 7.58485 | 29976 ft | 444 kts | 312° |
| 2026-04-29 17:32 | 41.19944 | 7.52462 | 29966 ft | 441 kts | 312° |
| 2026-04-29 17:33 | 41.24134 | 7.46586 | 29967 ft | 440 kts | 313° |
| 2026-04-29 17:33 | 41.28286 | 7.40631 | 29975 ft | 438 kts | 311° |
| 2026-04-29 17:34 | 41.32461 | 7.34717 | 29971 ft | 437 kts | 313° |
| 2026-04-29 17:34 | 41.36585 | 7.28789 | 29976 ft | 435 kts | 311° |
| 2026-04-29 17:35 | 41.42759 | 7.19957 | 29978 ft | 433 kts | 310° |
| 2026-04-29 17:36 | 41.46863 | 7.14099 | 29971 ft | 432 kts | 312° |
| 2026-04-29 17:36 | 41.50905 | 7.08188 | 29973 ft | 431 kts | 311° |
| 2026-04-29 17:37 | 41.54979 | 7.02399 | 29980 ft | 430 kts | 311° |
| 2026-04-29 17:37 | 41.58997 | 6.96507 | 29974 ft | 429 kts | 311° |
| 2026-04-29 17:38 | 41.63065 | 6.90688 | 29978 ft | 428 kts | 311° |
| 2026-04-29 17:38 | 41.67066 | 6.84797 | 29980 ft | 427 kts | 311° |
| 2026-04-29 17:39 | 41.71120 | 6.78990 | 29985 ft | 426 kts | 311° |
| 2026-04-29 17:39 | 41.75109 | 6.73111 | 29978 ft | 426 kts | 312° |
| 2026-04-29 17:40 | 41.79114 | 6.67260 | 29988 ft | 426 kts | 310° |
| 2026-04-29 17:40 | 41.83110 | 6.61413 | 29981 ft | 425 kts | 311° |
| 2026-04-29 17:41 | 41.87089 | 6.55559 | 29990 ft | 424 kts | 310° |
| 2026-04-29 17:41 | 41.91070 | 6.49715 | 29985 ft | 424 kts | 311° |
| 2026-04-29 17:42 | 41.95047 | 6.43873 | 29997 ft | 423 kts | 310° |
| 2026-04-29 17:42 | 41.98982 | 6.38058 | 29987 ft | 423 kts | 311° |
| 2026-04-29 17:43 | 42.02938 | 6.32209 | 29990 ft | 422 kts | 310° |
| 2026-04-29 17:43 | 42.06901 | 6.26378 | 29986 ft | 422 kts | 311° |
| 2026-04-29 17:44 | 42.10814 | 6.20498 | 29989 ft | 422 kts | 311° |
| 2026-04-29 17:44 | 42.14793 | 6.14675 | 29880 ft | 422 kts | 310° |
| 2026-04-29 17:44 | 42.16698 | 6.11752 | 29586 ft | 409 kts | 310° |
| 2026-04-29 17:45 | 42.18601 | 6.08939 | 29037 ft | 403 kts | 311° |
| 2026-04-29 17:45 | 42.20490 | 6.06189 | 28512 ft | 397 kts | 310° |
| 2026-04-29 17:45 | 42.22305 | 6.03417 | 27991 ft | 391 kts | 309° |
| 2026-04-29 17:45 | 42.24110 | 6.00695 | 27483 ft | 387 kts | 311° |
| 2026-04-29 17:46 | 42.25908 | 5.98084 | 26987 ft | 382 kts | 310° |
| 2026-04-29 17:46 | 42.27667 | 5.95410 | 26505 ft | 377 kts | 309° |
| 2026-04-29 17:46 | 42.29387 | 5.92754 | 26023 ft | 374 kts | 310° |
| 2026-04-29 17:46 | 42.31130 | 5.90171 | 25550 ft | 370 kts | 310° |
| 2026-04-29 17:47 | 42.32875 | 5.87631 | 25084 ft | 367 kts | 309° |
| 2026-04-29 17:47 | 42.34566 | 5.85059 | 24640 ft | 364 kts | 308° |
| 2026-04-29 17:47 | 42.36227 | 5.82497 | 24189 ft | 361 kts | 309° |
| 2026-04-29 17:47 | 42.37926 | 5.80007 | 23748 ft | 359 kts | 310° |
| 2026-04-29 17:48 | 42.39586 | 5.77507 | 23270 ft | 356 kts | 308° |
| 2026-04-29 17:48 | 42.41208 | 5.74990 | 22755 ft | 354 kts | 309° |
| 2026-04-29 17:48 | 42.42855 | 5.72528 | 22246 ft | 352 kts | 310° |
| 2026-04-29 17:48 | 42.43950 | 5.70918 | 21919 ft | 350 kts | 310° |
| 2026-04-29 17:49 | 42.45568 | 5.68471 | 21432 ft | 348 kts | 308° |
| 2026-04-29 17:49 | 42.47155 | 5.66005 | 20946 ft | 346 kts | 309° |
| 2026-04-29 17:49 | 42.48771 | 5.63596 | 20478 ft | 344 kts | 310° |
| 2026-04-29 17:49 | 42.50371 | 5.61192 | 20020 ft | 342 kts | 309° |
| 2026-04-29 17:50 | 42.51923 | 5.58760 | 19562 ft | 340 kts | 309° |
| 2026-04-29 17:50 | 42.53507 | 5.56387 | 19109 ft | 339 kts | 310° |
| 2026-04-29 17:50 | 42.55095 | 5.54035 | 18666 ft | 337 kts | 309° |
| 2026-04-29 17:50 | 42.56633 | 5.51647 | 18215 ft | 335 kts | 308° |
| 2026-04-29 17:51 | 42.58169 | 5.49274 | 17713 ft | 334 kts | 309° |
| 2026-04-29 17:51 | 42.59732 | 5.46951 | 17213 ft | 332 kts | 310° |
| 2026-04-29 17:51 | 42.61246 | 5.44646 | 16733 ft | 331 kts | 308° |
| 2026-04-29 17:51 | 42.62765 | 5.42261 | 16249 ft | 329 kts | 309° |
| 2026-04-29 17:52 | 42.64291 | 5.39956 | 15847 ft | 326 kts | 309° |
| 2026-04-29 17:52 | 42.65770 | 5.37733 | 15595 ft | 318 kts | 309° |
| 2026-04-29 17:52 | 42.67223 | 5.35502 | 15312 ft | 312 kts | 308° |
| 2026-04-29 17:52 | 42.68638 | 5.33306 | 15016 ft | 307 kts | 309° |
| 2026-04-29 17:53 | 42.70129 | 5.31276 | 14772 ft | 302 kts | 321° |
| 2026-04-29 17:53 | 42.71921 | 5.29822 | 14533 ft | 297 kts | 327° |
| 2026-04-29 17:53 | 42.73710 | 5.28443 | 14301 ft | 292 kts | 327° |
| 2026-04-29 17:53 | 42.75450 | 5.27048 | 14069 ft | 288 kts | 325° |
| 2026-04-29 17:54 | 42.77161 | 5.25668 | 13831 ft | 285 kts | 326° |
| 2026-04-29 17:54 | 42.78874 | 5.24348 | 13568 ft | 281 kts | 326° |
| 2026-04-29 17:54 | 42.80555 | 5.23009 | 13303 ft | 279 kts | 325° |
| 2026-04-29 17:54 | 42.82216 | 5.21647 | 13042 ft | 278 kts | 325° |
| 2026-04-29 17:55 | 42.83864 | 5.20320 | 12779 ft | 280 kts | 326° |
| 2026-04-29 17:55 | 42.85556 | 5.19002 | 12521 ft | 280 kts | 326° |
| 2026-04-29 17:55 | 42.87224 | 5.17636 | 12264 ft | 280 kts | 326° |
| 2026-04-29 17:55 | 42.88905 | 5.16282 | 11999 ft | 281 kts | 327° |
| 2026-04-29 17:56 | 42.90604 | 5.14963 | 11749 ft | 281 kts | 326° |
| 2026-04-29 17:56 | 42.92286 | 5.13603 | 11503 ft | 280 kts | 324° |
| 2026-04-29 17:56 | 42.93945 | 5.12211 | 11246 ft | 280 kts | 326° |
| 2026-04-29 17:56 | 42.95762 | 5.11260 | 10972 ft | 283 kts | 344° |
| 2026-04-29 17:57 | 42.97701 | 5.10745 | 10733 ft | 283 kts | 344° |
| 2026-04-29 17:57 | 42.99609 | 5.10123 | 10496 ft | 282 kts | 342° |
| 2026-04-29 17:57 | 43.01499 | 5.09415 | 10253 ft | 281 kts | 341° |
| 2026-04-29 17:57 | 43.03391 | 5.08722 | 10013 ft | 282 kts | 341° |
| 2026-04-29 17:58 | 43.05299 | 5.08095 | 9752 ft | 282 kts | 344° |
| 2026-04-29 17:58 | 43.07197 | 5.07440 | 9499 ft | 281 kts | 342° |
| 2026-04-29 17:58 | 43.09085 | 5.06742 | 9237 ft | 281 kts | 341° |
| 2026-04-29 17:58 | 43.10991 | 5.06105 | 8976 ft | 282 kts | 343° |
| 2026-04-29 17:59 | 43.12895 | 5.05462 | 8718 ft | 282 kts | 341° |
| 2026-04-29 17:59 | 43.14762 | 5.04764 | 8462 ft | 282 kts | 342° |
| 2026-04-29 17:59 | 43.16668 | 5.04099 | 8207 ft | 283 kts | 345° |
| 2026-04-29 17:59 | 43.18580 | 5.03472 | 8033 ft | 280 kts | 344° |
| 2026-04-29 18:00 | 43.20461 | 5.02797 | 7852 ft | 278 kts | 345° |
| 2026-04-29 18:00 | 43.22373 | 5.02445 | 7677 ft | 277 kts | 357° |
| 2026-04-29 18:00 | 43.24300 | 5.02422 | 7526 ft | 276 kts | 359° |
| 2026-04-29 18:00 | 43.26217 | 5.02387 | 7384 ft | 275 kts | 357° |
| 2026-04-29 18:01 | 43.28127 | 5.02242 | 7244 ft | 274 kts | 355° |
| 2026-04-29 18:01 | 43.30032 | 5.02062 | 7113 ft | 273 kts | 355° |
| 2026-04-29 18:01 | 43.31894 | 5.01897 | 7047 ft | 270 kts | 357° |
| 2026-04-29 18:01 | 43.33761 | 5.01791 | 7013 ft | 266 kts | 359° |
| 2026-04-29 18:02 | 43.35603 | 5.01832 | 6996 ft | 263 kts | 4° |
| 2026-04-29 18:02 | 43.37413 | 5.02025 | 7020 ft | 260 kts | 5° |
| 2026-04-29 18:02 | 43.39211 | 5.02136 | 7027 ft | 258 kts | 1° |
| 2026-04-29 18:02 | 43.41000 | 5.02174 | 7026 ft | 256 kts | 1° |
| 2026-04-29 18:03 | 43.42782 | 5.02207 | 7001 ft | 256 kts | 359° |
| 2026-04-29 18:03 | 43.44515 | 5.01582 | 6809 ft | 265 kts | 328° |
| 2026-04-29 18:03 | 43.45864 | 4.99819 | 6637 ft | 270 kts | 309° |
| 2026-04-29 18:03 | 43.47088 | 4.97822 | 6421 ft | 275 kts | 321° |
| 2026-04-29 18:04 | 43.48361 | 4.95823 | 6058 ft | 280 kts | 320° |
| 2026-04-29 18:04 | 43.49637 | 4.93817 | 5770 ft | 283 kts | 322° |
| 2026-04-29 18:04 | 43.51027 | 4.91900 | 5479 ft | 282 kts | 324° |
| 2026-04-29 18:04 | 43.52437 | 4.90016 | 5170 ft | 283 kts | 324° |
| 2026-04-29 18:05 | 43.53841 | 4.88141 | 5022 ft | 278 kts | 324° |
| 2026-04-29 18:05 | 43.55205 | 4.86305 | 4945 ft | 270 kts | 324° |
| 2026-04-29 18:05 | 43.56619 | 4.84738 | 5103 ft | 250 kts | 347° |
| 2026-04-29 18:05 | 43.58232 | 4.84528 | 5296 ft | 227 kts | 28° |
| 2026-04-29 18:06 | 43.59517 | 4.85624 | 5279 ft | 217 kts | 57° |
| 2026-04-29 18:06 | 43.60599 | 4.87159 | 4879 ft | 234 kts | 60° |
| 2026-04-29 18:06 | 43.61714 | 4.88925 | 4345 ft | 252 kts | 62° |
| 2026-04-29 18:06 | 43.62824 | 4.90825 | 4115 ft | 254 kts | 65° |
| 2026-04-29 18:07 | 43.63469 | 4.92951 | 4258 ft | 232 kts | 99° |
| 2026-04-29 18:07 | 43.63012 | 4.94964 | 4354 ft | 219 kts | 138° |
| 2026-04-29 18:07 | 43.61869 | 4.96362 | 4180 ft | 225 kts | 149° |
| 2026-04-29 18:07 | 43.60626 | 4.97720 | 4018 ft | 229 kts | 149° |
| 2026-04-29 18:08 | 43.59386 | 4.99055 | 3925 ft | 229 kts | 148° |
| 2026-04-29 18:08 | 43.58153 | 5.00466 | 3825 ft | 231 kts | 147° |
| 2026-04-29 18:08 | 43.56898 | 5.01961 | 3429 ft | 244 kts | 146° |
| 2026-04-29 18:08 | 43.55618 | 5.03524 | 3102 ft | 247 kts | 145° |
| 2026-04-29 18:09 | 43.54337 | 5.05123 | 2781 ft | 249 kts | 144° |
| 2026-04-29 18:09 | 43.53055 | 5.06754 | 2440 ft | 251 kts | 144° |
| 2026-04-29 18:09 | 43.51790 | 5.08425 | 2101 ft | 252 kts | 141° |
| 2026-04-29 18:09 | 43.50576 | 5.10126 | 1757 ft | 236 kts | 141° |
| 2026-04-29 18:10 | 43.49548 | 5.11666 | 1438 ft | 201 kts | 140° |
| 2026-04-29 18:10 | 43.48704 | 5.13044 | 1170 ft | 174 kts | 139° |
| 2026-04-29 18:10 | 43.48006 | 5.14264 | 980 ft | 153 kts | 139° |
| 2026-04-29 18:10 | 43.47509 | 5.15488 | 724 ft | 143 kts | 119° |
| 2026-04-29 18:11 | 43.47287 | 5.16737 | 609 ft | 121 kts | 109° |
| 2026-04-29 18:11 | 43.46785 | 5.17726 | 637 ft | 133 kts | 137° |
| 2026-04-29 18:11 | 43.46087 | 5.18471 | 897 ft | 125 kts | 143° |
| 2026-04-29 18:11 | 43.45450 | 5.19186 | 1187 ft | 98 kts | 138° |
| 2026-04-29 18:12 | 43.44820 | 5.20041 | 982 ft | 154 kts | 134° |
| 2026-04-29 18:12 | 43.44163 | 5.21000 | 1916 ft | 113 kts | 130° |
| 2026-04-29 18:12 | 43.43621 | 5.21767 | 2514 ft | 105 kts | 130° |
| 2026-04-29 18:12 | 43.43121 | 5.22515 | 2879 ft | 124 kts | 130° |
| 2026-04-29 18:13 | 43.42338 | 5.23507 | 2888 ft | 178 kts | 148° |
| 2026-04-29 18:13 | 43.41053 | 5.23734 | 3228 ft | 202 kts | 194° |
| 2026-04-29 18:13 | 43.39893 | 5.22578 | 3634 ft | 217 kts | 231° |
| 2026-04-29 18:13 | 43.39058 | 5.20805 | 4085 ft | 220 kts | 235° |
| 2026-04-29 18:14 | 43.38265 | 5.19021 | 4439 ft | 219 kts | 237° |
| 2026-04-29 18:14 | 43.37504 | 5.17244 | 4677 ft | 219 kts | 239° |
| 2026-04-29 18:14 | 43.36716 | 5.15350 | 4527 ft | 237 kts | 240° |
| 2026-04-29 18:14 | 43.35896 | 5.13321 | 4306 ft | 249 kts | 245° |
| 2026-04-29 18:15 | 43.35648 | 5.10956 | 4130 ft | 257 kts | 282° |
| 2026-04-29 18:15 | 43.36399 | 5.08741 | 3971 ft | 259 kts | 311° |
| 2026-04-29 18:15 | 43.37558 | 5.06798 | 3752 ft | 265 kts | 313° |
| 2026-04-29 18:15 | 43.38774 | 5.04850 | 3516 ft | 271 kts | 315° |
| 2026-04-29 18:16 | 43.40046 | 5.02912 | 3285 ft | 275 kts | 316° |
| 2026-04-29 18:16 | 43.41354 | 5.00959 | 3011 ft | 279 kts | 316° |
| 2026-04-29 18:16 | 43.42675 | 4.98981 | 2731 ft | 282 kts | 316° |
| 2026-04-29 18:16 | 43.44007 | 4.96986 | 2432 ft | 283 kts | 316° |
| 2026-04-29 18:17 | 43.45334 | 4.94987 | 2179 ft | 281 kts | 315° |
| 2026-04-29 18:17 | 43.46648 | 4.93043 | 2082 ft | 273 kts | 319° |
| 2026-04-29 18:17 | 43.48190 | 4.91744 | 2154 ft | 251 kts | 354° |
| 2026-04-29 18:17 | 43.49802 | 4.91885 | 2175 ft | 226 kts | 33° |
| 2026-04-29 18:18 | 43.51121 | 4.92964 | 2079 ft | 219 kts | 45° |
| 2026-04-29 18:18 | 43.52379 | 4.94134 | 2016 ft | 216 kts | 46° |
| 2026-04-29 18:18 | 43.53585 | 4.95331 | 1972 ft | 211 kts | 48° |
| 2026-04-29 18:18 | 43.54734 | 4.96542 | 1939 ft | 205 kts | 48° |
| 2026-04-29 18:19 | 43.55715 | 4.97857 | 2007 ft | 186 kts | 72° |
| 2026-04-29 18:19 | 43.56200 | 4.99440 | 2003 ft | 177 kts | 82° |
| 2026-04-29 18:19 | 43.56602 | 5.00981 | 2021 ft | 161 kts | 85° |
| 2026-04-29 18:19 | 43.56646 | 5.02362 | 2144 ft | 133 kts | 129° |
| 2026-04-29 18:20 | 43.56095 | 5.03320 | 2067 ft | 129 kts | 138° |
| 2026-04-29 18:20 | 43.55538 | 5.04296 | 2001 ft | 129 kts | 137° |
| 2026-04-29 18:20 | 43.54965 | 5.05243 | 1994 ft | 130 kts | 141° |
| 2026-04-29 18:20 | 43.54304 | 5.06230 | 2013 ft | 146 kts | 143° |
| 2026-04-29 18:21 | 43.53612 | 5.07234 | 2037 ft | 143 kts | 144° |
| 2026-04-29 18:21 | 43.52912 | 5.08220 | 2038 ft | 150 kts | 144° |
| 2026-04-29 18:21 | 43.52157 | 5.09264 | 2017 ft | 155 kts | 144° |
| 2026-04-29 18:21 | 43.51408 | 5.10313 | 1954 ft | 153 kts | 143° |
| 2026-04-29 18:22 | 43.50666 | 5.11378 | 1676 ft | 153 kts | 141° |
| 2026-04-29 18:22 | 43.49952 | 5.12431 | 1492 ft | 148 kts | 141° |
| 2026-04-29 18:22 | 43.49263 | 5.13438 | 1317 ft | 141 kts | 141° |
| 2026-04-29 18:22 | 43.48605 | 5.14398 | 1126 ft | 136 kts | 142° |
| 2026-04-29 18:23 | 43.47964 | 5.15326 | 945 ft | 132 kts | 143° |
| 2026-04-29 18:23 | 43.47352 | 5.16252 | 712 ft | 128 kts | 143° |
| 2026-04-29 18:23 | 43.46764 | 5.17122 | 591 ft | 123 kts | 143° |
| 2026-04-29 18:23 | 43.46136 | 5.17997 | 415 ft | 136 kts | 144° |
| 2026-04-29 18:24 | 43.45465 | 5.18911 | 273 ft | 133 kts | 138° |
| 2026-04-29 18:24 | 43.44834 | 5.19846 | 111 ft | 131 kts | 138° |
| 2026-04-29 18:24 | 43.44231 | 5.20721 | 39 ft | 121 kts | 140° |
| 2026-04-29 18:24 | 43.43687 | 5.21476 | 36 ft | 98 kts | 133° |
| 2026-04-29 18:25 | 43.43284 | 5.22031 | 36 ft | 62 kts | 132° |
| 2026-04-29 18:25 | 43.43090 | 5.22317 | 37 ft | 33 kts | 130° |
| 2026-04-29 18:25 | 43.43139 | 5.22497 | 37 ft | 23 kts | 4° |
| 2026-04-29 18:25 | 43.43265 | 5.22419 | 37 ft | 15 kts | 313° |
| 2026-04-29 18:26 | 43.43295 | 5.22375 | 37 ft | 0 kts | 313° |
| 2026-04-29 18:27 | 43.43298 | 5.22371 | 37 ft | 1 kts | 313° |
| 2026-04-29 18:27 | 43.43308 | 5.22356 | 37 ft | 5 kts | 313° |
| 2026-04-29 18:28 | 43.43350 | 5.22308 | 37 ft | 11 kts | 332° |
| 2026-04-29 18:28 | 43.43440 | 5.22269 | 37 ft | 14 kts | 332° |
| 2026-04-29 18:28 | 43.43527 | 5.22198 | 37 ft | 15 kts | 329° |
| 2026-04-29 18:28 | 43.43618 | 5.22127 | 37 ft | 15 kts | 332° |
| 2026-04-29 18:29 | 43.43711 | 5.22164 | 37 ft | 15 kts | 41° |
| 2026-04-29 18:29 | 43.43765 | 5.22230 | 37 ft | 15 kts | 27° |
| 2026-04-29 18:29 | 43.43848 | 5.22205 | 37 ft | 3 kts | 338° |
| 2026-04-29 18:29 | 43.43870 | 5.22190 | 37 ft | 4 kts | 330° |
| 2026-04-29 18:30 | 43.43897 | 5.22185 | 37 ft | 4 kts | 19° |
| 2026-04-29 18:30 | 43.43917 | 5.22208 | 37 ft | 4 kts | 56° |
| 2026-04-29 18:30 | 43.43928 | 5.22233 | 37 ft | 2 kts | 61° |
| 2026-04-29 18:30 | 43.43932 | 5.22245 | 37 ft | 1 kts | 61° |
| 2026-04-29 18:31 | 43.43934 | 5.22250 | 37 ft | 1 kts | 61° |
| 2026-04-29 18:31 | 43.43936 | 5.22254 | 37 ft | 0 kts | 61° |